sensor_id;sensor_type;location;lat;lon;timestamp;temperature;humidity
10133;DHT22;5106;50.926;7.080;2023-06-05T00:17:42;14.60;72.60
10133;DHT22;5106;50.926;7.080;2023-06-05T00:20:08;14.50;72.80
10133;DHT22;5106;50.926;7.080;2023-06-05T00:22:36;14.50;73.10
10133;DHT22;5106;50.926;7.080;2023-06-05T00:25:03;14.50;73.00
10133;DHT22;5106;50.926;7.080;2023-06-05T00:27:29;14.50;73.00
10133;DHT22;5106;50.926;7.080;2023-06-05T00:29:54;14.50;73.10
10133;DHT22;5106;50.926;7.080;2023-06-05T00:32:20;14.40;73.10
10133;DHT22;5106;50.926;7.080;2023-06-05T00:34:46;14.40;73.40
10133;DHT22;5106;50.926;7.080;2023-06-05T00:37:12;14.30;73.30
10133;DHT22;5106;50.926;7.080;2023-06-05T00:39:41;14.30;73.30
10133;DHT22;5106;50.926;7.080;2023-06-05T00:42:07;14.30;73.50
10133;DHT22;5106;50.926;7.080;2023-06-05T00:44:34;14.30;73.40
10133;DHT22;5106;50.926;7.080;2023-06-05T00:47:00;14.20;73.30
10133;DHT22;5106;50.926;7.080;2023-06-05T00:49:26;14.10;73.50
10133;DHT22;5106;50.926;7.080;2023-06-05T00:51:52;14.10;73.40
10133;DHT22;5106;50.926;7.080;2023-06-05T00:54:18;14.10;73.60
10133;DHT22;5106;50.926;7.080;2023-06-05T00:56:46;14.00;73.80
10133;DHT22;5106;50.926;7.080;2023-06-05T00:59:12;14.00;73.60
10133;DHT22;5106;50.926;7.080;2023-06-05T01:01:39;14.00;73.70
10133;DHT22;5106;50.926;7.080;2023-06-05T01:04:05;14.00;73.70
10133;DHT22;5106;50.926;7.080;2023-06-05T01:06:32;14.00;73.80
10133;DHT22;5106;50.926;7.080;2023-06-05T01:08:59;13.90;73.70
10133;DHT22;5106;50.926;7.080;2023-06-05T01:14:24;13.80;73.90
10133;DHT22;5106;50.926;7.080;2023-06-05T01:16:54;13.70;73.80
10133;DHT22;5106;50.926;7.080;2023-06-05T01:19:23;13.60;73.90
10133;DHT22;5106;50.926;7.080;2023-06-05T01:21:58;13.60;74.00
10133;DHT22;5106;50.926;7.080;2023-06-05T01:24:26;13.60;74.10
10133;DHT22;5106;50.926;7.080;2023-06-05T01:29:34;13.60;74.20
10133;DHT22;5106;50.926;7.080;2023-06-05T01:32:06;13.60;74.30
10133;DHT22;5106;50.926;7.080;2023-06-05T01:34:33;13.50;74.30
10133;DHT22;5106;50.926;7.080;2023-06-05T01:37:00;13.50;74.40
10133;DHT22;5106;50.926;7.080;2023-06-05T01:39:27;13.50;74.40
10133;DHT22;5106;50.926;7.080;2023-06-05T01:41:54;13.40;74.50
10133;DHT22;5106;50.926;7.080;2023-06-05T01:44:20;13.40;74.60
10133;DHT22;5106;50.926;7.080;2023-06-05T01:46:47;13.40;74.60
10133;DHT22;5106;50.926;7.080;2023-06-05T01:49:13;13.30;74.50
10133;DHT22;5106;50.926;7.080;2023-06-05T01:51:39;13.30;74.50
10133;DHT22;5106;50.926;7.080;2023-06-05T01:54:04;13.20;74.60
10133;DHT22;5106;50.926;7.080;2023-06-05T01:56:31;13.20;74.40
10133;DHT22;5106;50.926;7.080;2023-06-05T01:58:57;13.20;74.50
10133;DHT22;5106;50.926;7.080;2023-06-05T02:01:23;13.10;74.60
10133;DHT22;5106;50.926;7.080;2023-06-05T02:03:49;13.10;74.70
10133;DHT22;5106;50.926;7.080;2023-06-05T02:06:18;13.10;74.80
10133;DHT22;5106;50.926;7.080;2023-06-05T02:08:44;13.10;74.80
10133;DHT22;5106;50.926;7.080;2023-06-05T02:11:10;13.00;74.80
10133;DHT22;5106;50.926;7.080;2023-06-05T02:13:39;13.00;74.80
10133;DHT22;5106;50.926;7.080;2023-06-05T02:16:07;12.90;74.80
10133;DHT22;5106;50.926;7.080;2023-06-05T02:18:33;12.90;74.70
10133;DHT22;5106;50.926;7.080;2023-06-05T02:21:03;12.90;74.70
10133;DHT22;5106;50.926;7.080;2023-06-05T02:23:28;12.80;74.70
10133;DHT22;5106;50.926;7.080;2023-06-05T02:25:55;12.80;75.00
10133;DHT22;5106;50.926;7.080;2023-06-05T02:28:21;12.70;74.80
10133;DHT22;5106;50.926;7.080;2023-06-05T02:30:47;12.60;75.00
10133;DHT22;5106;50.926;7.080;2023-06-05T02:33:13;12.60;75.10
10133;DHT22;5106;50.926;7.080;2023-06-05T02:35:40;12.50;75.00
10133;DHT22;5106;50.926;7.080;2023-06-05T02:38:07;12.50;75.10
10133;DHT22;5106;50.926;7.080;2023-06-05T02:40:33;12.40;75.20
10133;DHT22;5106;50.926;7.080;2023-06-05T02:42:58;12.40;75.20
10133;DHT22;5106;50.926;7.080;2023-06-05T02:45:24;12.30;75.00
10133;DHT22;5106;50.926;7.080;2023-06-05T02:47:49;12.30;75.00
10133;DHT22;5106;50.926;7.080;2023-06-05T02:50:15;12.20;74.90
10133;DHT22;5106;50.926;7.080;2023-06-05T02:52:41;12.10;75.20
10133;DHT22;5106;50.926;7.080;2023-06-05T02:55:07;12.10;75.20
10133;DHT22;5106;50.926;7.080;2023-06-05T02:57:33;12.10;75.40
10133;DHT22;5106;50.926;7.080;2023-06-05T03:00:07;12.00;75.40
10133;DHT22;5106;50.926;7.080;2023-06-05T03:02:33;12.10;75.50
10133;DHT22;5106;50.926;7.080;2023-06-05T03:05:02;12.00;75.30
10133;DHT22;5106;50.926;7.080;2023-06-05T03:07:28;12.00;75.40
10133;DHT22;5106;50.926;7.080;2023-06-05T03:09:55;12.00;75.50
10133;DHT22;5106;50.926;7.080;2023-06-05T03:12:21;12.00;75.30
10133;DHT22;5106;50.926;7.080;2023-06-05T03:14:46;11.90;75.30
10133;DHT22;5106;50.926;7.080;2023-06-05T03:17:12;11.90;75.20
10133;DHT22;5106;50.926;7.080;2023-06-05T03:19:37;11.80;75.30
10133;DHT22;5106;50.926;7.080;2023-06-05T03:22:03;11.80;75.40
10133;DHT22;5106;50.926;7.080;2023-06-05T03:24:30;11.70;75.60
10133;DHT22;5106;50.926;7.080;2023-06-05T03:26:56;11.70;75.60
10133;DHT22;5106;50.926;7.080;2023-06-05T03:29:21;11.70;75.60
10133;DHT22;5106;50.926;7.080;2023-06-05T03:31:47;11.60;75.80
10133;DHT22;5106;50.926;7.080;2023-06-05T03:34:12;11.50;75.90
10133;DHT22;5106;50.926;7.080;2023-06-05T03:36:38;11.50;76.20
10133;DHT22;5106;50.926;7.080;2023-06-05T03:39:05;11.50;76.00
10133;DHT22;5106;50.926;7.080;2023-06-05T03:41:31;11.50;76.10
10133;DHT22;5106;50.926;7.080;2023-06-05T03:43:56;11.50;76.30
10133;DHT22;5106;50.926;7.080;2023-06-05T03:46:22;11.40;76.40
10133;DHT22;5106;50.926;7.080;2023-06-05T03:48:49;11.40;76.60
10133;DHT22;5106;50.926;7.080;2023-06-05T03:51:15;11.40;76.80
10133;DHT22;5106;50.926;7.080;2023-06-05T03:53:45;11.30;76.70
10133;DHT22;5106;50.926;7.080;2023-06-05T03:56:11;11.30;76.80
10133;DHT22;5106;50.926;7.080;2023-06-05T03:58:40;11.30;76.80
10133;DHT22;5106;50.926;7.080;2023-06-05T04:01:06;11.20;76.70
10133;DHT22;5106;50.926;7.080;2023-06-05T04:03:32;11.20;76.80
10133;DHT22;5106;50.926;7.080;2023-06-05T04:05:58;11.30;76.80
10133;DHT22;5106;50.926;7.080;2023-06-05T04:08:23;11.20;76.80
10133;DHT22;5106;50.926;7.080;2023-06-05T04:10:49;11.20;76.80
10133;DHT22;5106;50.926;7.080;2023-06-05T04:13:15;11.20;77.10
10133;DHT22;5106;50.926;7.080;2023-06-05T04:15:41;11.10;77.30
10133;DHT22;5106;50.926;7.080;2023-06-05T04:18:09;11.10;77.30
10133;DHT22;5106;50.926;7.080;2023-06-05T04:20:35;11.10;77.40
10133;DHT22;5106;50.926;7.080;2023-06-05T04:23:00;11.10;77.50
10133;DHT22;5106;50.926;7.080;2023-06-05T04:25:26;11.10;77.50
10133;DHT22;5106;50.926;7.080;2023-06-05T04:27:54;11.10;77.70
10133;DHT22;5106;50.926;7.080;2023-06-05T04:30:21;11.10;77.70
10133;DHT22;5106;50.926;7.080;2023-06-05T04:32:46;11.20;77.80
10133;DHT22;5106;50.926;7.080;2023-06-05T04:35:19;11.20;77.70
10133;DHT22;5106;50.926;7.080;2023-06-05T04:37:45;11.20;77.90
10133;DHT22;5106;50.926;7.080;2023-06-05T04:40:11;11.20;77.70
10133;DHT22;5106;50.926;7.080;2023-06-05T04:42:37;11.20;77.80
10133;DHT22;5106;50.926;7.080;2023-06-05T04:45:05;11.20;77.90
10133;DHT22;5106;50.926;7.080;2023-06-05T04:47:31;11.20;77.90
10133;DHT22;5106;50.926;7.080;2023-06-05T04:50:05;11.20;78.10
10133;DHT22;5106;50.926;7.080;2023-06-05T04:52:32;11.20;78.10
10133;DHT22;5106;50.926;7.080;2023-06-05T04:55:01;11.30;78.10
10133;DHT22;5106;50.926;7.080;2023-06-05T04:57:28;11.40;78.40
10133;DHT22;5106;50.926;7.080;2023-06-05T04:59:55;11.40;78.30
10133;DHT22;5106;50.926;7.080;2023-06-05T05:02:22;11.40;78.50
10133;DHT22;5106;50.926;7.080;2023-06-05T05:04:48;11.50;78.70
10133;DHT22;5106;50.926;7.080;2023-06-05T05:07:13;11.50;78.60
10133;DHT22;5106;50.926;7.080;2023-06-05T05:09:42;11.60;78.70
10133;DHT22;5106;50.926;7.080;2023-06-05T05:12:08;11.70;78.80
10133;DHT22;5106;50.926;7.080;2023-06-05T05:14:35;11.70;79.00
10133;DHT22;5106;50.926;7.080;2023-06-05T05:17:01;11.80;79.10
10133;DHT22;5106;50.926;7.080;2023-06-05T05:19:28;11.90;79.00
10133;DHT22;5106;50.926;7.080;2023-06-05T05:21:54;11.90;78.90
10133;DHT22;5106;50.926;7.080;2023-06-05T05:24:20;12.00;78.80
10133;DHT22;5106;50.926;7.080;2023-06-05T05:26:45;12.00;78.80
10133;DHT22;5106;50.926;7.080;2023-06-05T05:29:11;12.10;78.90
10133;DHT22;5106;50.926;7.080;2023-06-05T05:31:37;12.10;78.80
10133;DHT22;5106;50.926;7.080;2023-06-05T05:34:03;12.20;78.80
10133;DHT22;5106;50.926;7.080;2023-06-05T05:36:28;12.20;78.40
10133;DHT22;5106;50.926;7.080;2023-06-05T05:38:54;12.30;78.10
10133;DHT22;5106;50.926;7.080;2023-06-05T05:41:20;12.40;77.70
10133;DHT22;5106;50.926;7.080;2023-06-05T05:43:46;12.40;77.30
10133;DHT22;5106;50.926;7.080;2023-06-05T05:46:11;12.50;76.90
10133;DHT22;5106;50.926;7.080;2023-06-05T05:48:37;12.60;76.70
10133;DHT22;5106;50.926;7.080;2023-06-05T05:51:05;12.70;76.60
10133;DHT22;5106;50.926;7.080;2023-06-05T05:53:30;12.80;76.60
10133;DHT22;5106;50.926;7.080;2023-06-05T05:55:56;12.90;76.60
10133;DHT22;5106;50.926;7.080;2023-06-05T05:58:22;13.00;76.70
10133;DHT22;5106;50.926;7.080;2023-06-05T06:00:47;13.00;76.70
10133;DHT22;5106;50.926;7.080;2023-06-05T06:03:13;13.10;76.50
10133;DHT22;5106;50.926;7.080;2023-06-05T06:05:40;13.20;76.40
10133;DHT22;5106;50.926;7.080;2023-06-05T06:08:06;13.30;76.20
10133;DHT22;5106;50.926;7.080;2023-06-05T06:10:32;13.30;76.50
10133;DHT22;5106;50.926;7.080;2023-06-05T06:12:58;13.40;76.70
10133;DHT22;5106;50.926;7.080;2023-06-05T06:15:24;13.50;76.70
10133;DHT22;5106;50.926;7.080;2023-06-05T06:17:50;13.60;76.70
10133;DHT22;5106;50.926;7.080;2023-06-05T06:20:15;13.60;76.50
10133;DHT22;5106;50.926;7.080;2023-06-05T06:22:42;13.70;75.80
10133;DHT22;5106;50.926;7.080;2023-06-05T06:25:10;13.70;75.50
10133;DHT22;5106;50.926;7.080;2023-06-05T06:27:36;13.80;75.30
10133;DHT22;5106;50.926;7.080;2023-06-05T06:30:03;13.90;75.20
10133;DHT22;5106;50.926;7.080;2023-06-05T06:32:29;14.00;74.80
10133;DHT22;5106;50.926;7.080;2023-06-05T06:34:55;14.10;74.40
10133;DHT22;5106;50.926;7.080;2023-06-05T06:37:21;14.20;74.10
10133;DHT22;5106;50.926;7.080;2023-06-05T06:39:48;14.30;73.30
10133;DHT22;5106;50.926;7.080;2023-06-05T06:42:14;14.30;72.70
10133;DHT22;5106;50.926;7.080;2023-06-05T06:44:40;14.40;72.00
10133;DHT22;5106;50.926;7.080;2023-06-05T06:47:06;14.50;72.00
10133;DHT22;5106;50.926;7.080;2023-06-05T06:49:33;14.60;72.20
10133;DHT22;5106;50.926;7.080;2023-06-05T06:51:59;14.70;72.30
10133;DHT22;5106;50.926;7.080;2023-06-05T06:54:25;14.80;72.40
10133;DHT22;5106;50.926;7.080;2023-06-05T06:56:54;14.80;71.80
10133;DHT22;5106;50.926;7.080;2023-06-05T06:59:20;15.00;71.30
10133;DHT22;5106;50.926;7.080;2023-06-05T07:01:46;15.10;71.30
10133;DHT22;5106;50.926;7.080;2023-06-05T07:04:16;15.10;71.40
10133;DHT22;5106;50.926;7.080;2023-06-05T07:06:45;15.20;71.80
10133;DHT22;5106;50.926;7.080;2023-06-05T07:09:11;15.30;71.90
10133;DHT22;5106;50.926;7.080;2023-06-05T07:11:37;15.50;70.90
10133;DHT22;5106;50.926;7.080;2023-06-05T07:14:03;15.60;70.70
10133;DHT22;5106;50.926;7.080;2023-06-05T07:16:28;15.70;71.30
10133;DHT22;5106;50.926;7.080;2023-06-05T07:18:54;15.80;70.60
10133;DHT22;5106;50.926;7.080;2023-06-05T07:21:21;15.80;71.20
10133;DHT22;5106;50.926;7.080;2023-06-05T07:23:50;15.90;71.30
10133;DHT22;5106;50.926;7.080;2023-06-05T07:26:20;16.00;71.00
10133;DHT22;5106;50.926;7.080;2023-06-05T07:28:47;16.10;69.30
10133;DHT22;5106;50.926;7.080;2023-06-05T07:31:13;16.20;68.60
10133;DHT22;5106;50.926;7.080;2023-06-05T07:33:39;16.30;68.20
10133;DHT22;5106;50.926;7.080;2023-06-05T07:36:05;16.40;68.40
10133;DHT22;5106;50.926;7.080;2023-06-05T07:38:31;16.50;69.10
10133;DHT22;5106;50.926;7.080;2023-06-05T07:40:59;16.60;68.90
10133;DHT22;5106;50.926;7.080;2023-06-05T07:43:27;16.70;68.60
10133;DHT22;5106;50.926;7.080;2023-06-05T07:45:53;16.80;67.60
10133;DHT22;5106;50.926;7.080;2023-06-05T07:48:19;16.90;68.10
10133;DHT22;5106;50.926;7.080;2023-06-05T07:50:45;17.00;67.90
10133;DHT22;5106;50.926;7.080;2023-06-05T07:53:11;17.10;67.60
10133;DHT22;5106;50.926;7.080;2023-06-05T07:55:36;17.30;67.40
10133;DHT22;5106;50.926;7.080;2023-06-05T07:58:02;17.30;67.80
10133;DHT22;5106;50.926;7.080;2023-06-05T08:00:28;17.50;66.40
10133;DHT22;5106;50.926;7.080;2023-06-05T08:02:54;17.50;66.60
10133;DHT22;5106;50.926;7.080;2023-06-05T08:05:19;17.70;66.60
10133;DHT22;5106;50.926;7.080;2023-06-05T08:07:46;17.90;65.90
10133;DHT22;5106;50.926;7.080;2023-06-05T08:10:15;17.90;66.90
10133;DHT22;5106;50.926;7.080;2023-06-05T08:12:40;18.00;66.70
10133;DHT22;5106;50.926;7.080;2023-06-05T08:15:06;18.10;66.20
10133;DHT22;5106;50.926;7.080;2023-06-05T08:17:32;18.20;65.50
10133;DHT22;5106;50.926;7.080;2023-06-05T08:19:58;18.30;64.80
10133;DHT22;5106;50.926;7.080;2023-06-05T08:22:23;18.50;65.70
10133;DHT22;5106;50.926;7.080;2023-06-05T08:24:49;18.60;63.90
10133;DHT22;5106;50.926;7.080;2023-06-05T08:27:17;18.70;64.40
10133;DHT22;5106;50.926;7.080;2023-06-05T08:29:42;18.80;62.70
10133;DHT22;5106;50.926;7.080;2023-06-05T08:32:08;18.90;62.90
10133;DHT22;5106;50.926;7.080;2023-06-05T08:34:34;19.00;63.70
10133;DHT22;5106;50.926;7.080;2023-06-05T08:37:01;19.20;63.80
10133;DHT22;5106;50.926;7.080;2023-06-05T08:39:28;19.40;62.40
10133;DHT22;5106;50.926;7.080;2023-06-05T08:42:01;19.50;61.80
10133;DHT22;5106;50.926;7.080;2023-06-05T08:44:28;19.60;61.40
10133;DHT22;5106;50.926;7.080;2023-06-05T08:47:00;19.70;62.10
10133;DHT22;5106;50.926;7.080;2023-06-05T08:49:27;19.80;62.40
10133;DHT22;5106;50.926;7.080;2023-06-05T08:52:06;20.00;62.10
10133;DHT22;5106;50.926;7.080;2023-06-05T08:54:40;20.10;62.30
10133;DHT22;5106;50.926;7.080;2023-06-05T08:57:07;20.30;62.80
10133;DHT22;5106;50.926;7.080;2023-06-05T08:59:33;20.40;60.20
10133;DHT22;5106;50.926;7.080;2023-06-05T09:02:00;20.50;60.90
10133;DHT22;5106;50.926;7.080;2023-06-05T09:04:25;20.70;60.70
10133;DHT22;5106;50.926;7.080;2023-06-05T09:06:58;20.90;60.50
10133;DHT22;5106;50.926;7.080;2023-06-05T09:09:25;21.00;60.60
10133;DHT22;5106;50.926;7.080;2023-06-05T09:12:05;21.10;59.40
10133;DHT22;5106;50.926;7.080;2023-06-05T09:14:31;21.20;59.30
10133;DHT22;5106;50.926;7.080;2023-06-05T09:16:57;21.20;58.30
10133;DHT22;5106;50.926;7.080;2023-06-05T09:19:23;21.30;58.50
10133;DHT22;5106;50.926;7.080;2023-06-05T09:21:54;21.40;58.40
10133;DHT22;5106;50.926;7.080;2023-06-05T09:24:21;21.60;58.00
10133;DHT22;5106;50.926;7.080;2023-06-05T09:26:55;21.70;60.80
10133;DHT22;5106;50.926;7.080;2023-06-05T09:29:31;21.80;59.80
10133;DHT22;5106;50.926;7.080;2023-06-05T09:31:59;22.00;57.70
10133;DHT22;5106;50.926;7.080;2023-06-05T09:36:59;22.30;57.90
10133;DHT22;5106;50.926;7.080;2023-06-05T09:39:27;22.40;57.30
10133;DHT22;5106;50.926;7.080;2023-06-05T09:41:54;22.50;56.80
10133;DHT22;5106;50.926;7.080;2023-06-05T09:44:20;22.60;57.20
10133;DHT22;5106;50.926;7.080;2023-06-05T09:46:57;22.80;55.30
10133;DHT22;5106;50.926;7.080;2023-06-05T09:49:31;22.90;55.30
10133;DHT22;5106;50.926;7.080;2023-06-05T09:51:58;23.00;52.20
10133;DHT22;5106;50.926;7.080;2023-06-05T09:54:29;23.10;51.70
10133;DHT22;5106;50.926;7.080;2023-06-05T09:57:00;23.10;51.60
10133;DHT22;5106;50.926;7.080;2023-06-05T09:59:33;23.20;54.40
10133;DHT22;5106;50.926;7.080;2023-06-05T10:02:04;23.20;51.50
10133;DHT22;5106;50.926;7.080;2023-06-05T10:04:40;23.30;51.70
10133;DHT22;5106;50.926;7.080;2023-06-05T10:07:07;23.40;50.30
10133;DHT22;5106;50.926;7.080;2023-06-05T10:09:34;23.50;49.00
10133;DHT22;5106;50.926;7.080;2023-06-05T10:12:00;23.50;47.50
10133;DHT22;5106;50.926;7.080;2023-06-05T10:14:26;23.60;47.40
10133;DHT22;5106;50.926;7.080;2023-06-05T10:16:52;23.60;48.00
10133;DHT22;5106;50.926;7.080;2023-06-05T10:19:21;23.60;46.10
10133;DHT22;5106;50.926;7.080;2023-06-05T10:21:48;23.60;48.00
10133;DHT22;5106;50.926;7.080;2023-06-05T10:28:02;23.80;46.40
10133;DHT22;5106;50.926;7.080;2023-06-05T10:38:39;24.30;48.40
10133;DHT22;5106;50.926;7.080;2023-06-05T10:41:06;24.30;44.90
10133;DHT22;5106;50.926;7.080;2023-06-05T10:43:36;24.40;48.90
10133;DHT22;5106;50.926;7.080;2023-06-05T10:49:14;24.60;46.10
10133;DHT22;5106;50.926;7.080;2023-06-05T10:51:48;24.60;44.20
10133;DHT22;5106;50.926;7.080;2023-06-05T10:54:15;24.70;45.80
10133;DHT22;5106;50.926;7.080;2023-06-05T10:56:58;24.80;46.50
10133;DHT22;5106;50.926;7.080;2023-06-05T10:59:36;25.00;46.30
10133;DHT22;5106;50.926;7.080;2023-06-05T11:07:15;25.60;46.70
10133;DHT22;5106;50.926;7.080;2023-06-05T11:15:34;25.70;45.40
10133;DHT22;5106;50.926;7.080;2023-06-05T11:18:33;25.50;44.00
10133;DHT22;5106;50.926;7.080;2023-06-05T11:21:00;25.40;46.40
10133;DHT22;5106;50.926;7.080;2023-06-05T11:23:25;25.30;44.50
10133;DHT22;5106;50.926;7.080;2023-06-05T11:25:56;25.30;46.50
10133;DHT22;5106;50.926;7.080;2023-06-05T11:28:42;25.30;49.10
10133;DHT22;5106;50.926;7.080;2023-06-05T11:31:08;25.30;43.90
10133;DHT22;5106;50.926;7.080;2023-06-05T11:33:34;25.30;45.00
10133;DHT22;5106;50.926;7.080;2023-06-05T11:36:02;25.30;43.60
10133;DHT22;5106;50.926;7.080;2023-06-05T11:38:28;25.20;42.70
10133;DHT22;5106;50.926;7.080;2023-06-05T11:40:54;25.20;42.90
10133;DHT22;5106;50.926;7.080;2023-06-05T11:43:20;25.20;44.60
10133;DHT22;5106;50.926;7.080;2023-06-05T11:45:55;25.10;42.90
10133;DHT22;5106;50.926;7.080;2023-06-05T11:48:21;25.10;45.80
10133;DHT22;5106;50.926;7.080;2023-06-05T11:55:56;25.10;43.20
10133;DHT22;5106;50.926;7.080;2023-06-05T11:58:42;25.10;40.70
10133;DHT22;5106;50.926;7.080;2023-06-05T12:01:15;25.10;42.40
10133;DHT22;5106;50.926;7.080;2023-06-05T12:03:48;25.10;41.30
10133;DHT22;5106;50.926;7.080;2023-06-05T12:06:15;25.20;43.30
10133;DHT22;5106;50.926;7.080;2023-06-05T12:08:44;25.20;43.20
10133;DHT22;5106;50.926;7.080;2023-06-05T12:13:56;25.50;41.60
10133;DHT22;5106;50.926;7.080;2023-06-05T12:16:33;25.60;41.50
10133;DHT22;5106;50.926;7.080;2023-06-05T13:08:35;25.80;41.40
10133;DHT22;5106;50.926;7.080;2023-06-05T13:11:00;25.70;39.40
10133;DHT22;5106;50.926;7.080;2023-06-05T13:13:26;25.60;38.70
10133;DHT22;5106;50.926;7.080;2023-06-05T13:15:52;25.70;39.10
10133;DHT22;5106;50.926;7.080;2023-06-05T13:18:20;25.80;38.60
10133;DHT22;5106;50.926;7.080;2023-06-05T14:49:18;26.90;42.60
10133;DHT22;5106;50.926;7.080;2023-06-05T14:51:44;26.90;44.10
10133;DHT22;5106;50.926;7.080;2023-06-05T14:54:12;26.90;43.50
10133;DHT22;5106;50.926;7.080;2023-06-05T14:56:37;26.90;43.10
10133;DHT22;5106;50.926;7.080;2023-06-05T14:59:03;26.90;42.30
10133;DHT22;5106;50.926;7.080;2023-06-05T15:01:29;26.90;42.50
10133;DHT22;5106;50.926;7.080;2023-06-05T15:03:54;26.90;42.60
10133;DHT22;5106;50.926;7.080;2023-06-05T15:06:20;27.00;41.40
10133;DHT22;5106;50.926;7.080;2023-06-05T15:08:45;27.10;41.80
10133;DHT22;5106;50.926;7.080;2023-06-05T15:11:11;27.20;43.40
10133;DHT22;5106;50.926;7.080;2023-06-05T15:13:36;27.20;43.20
10133;DHT22;5106;50.926;7.080;2023-06-05T15:16:02;27.10;42.60
10133;DHT22;5106;50.926;7.080;2023-06-05T15:18:28;27.10;42.10
10133;DHT22;5106;50.926;7.080;2023-06-05T15:20:53;27.10;41.10
10133;DHT22;5106;50.926;7.080;2023-06-05T15:23:19;27.00;43.40
10133;DHT22;5106;50.926;7.080;2023-06-05T15:25:45;27.10;42.70
10133;DHT22;5106;50.926;7.080;2023-06-05T15:28:11;27.00;42.30
10133;DHT22;5106;50.926;7.080;2023-06-05T15:30:37;26.90;41.50
10133;DHT22;5106;50.926;7.080;2023-06-05T15:33:02;26.80;41.70
10133;DHT22;5106;50.926;7.080;2023-06-05T15:35:28;26.80;41.90
10133;DHT22;5106;50.926;7.080;2023-06-05T15:37:54;26.80;42.70
10133;DHT22;5106;50.926;7.080;2023-06-05T15:40:19;26.70;43.00
10133;DHT22;5106;50.926;7.080;2023-06-05T15:42:47;26.70;42.00
10133;DHT22;5106;50.926;7.080;2023-06-05T15:45:26;26.60;42.70
10133;DHT22;5106;50.926;7.080;2023-06-05T15:47:53;26.60;42.80
10133;DHT22;5106;50.926;7.080;2023-06-05T15:50:18;26.70;41.90
10133;DHT22;5106;50.926;7.080;2023-06-05T15:52:44;26.60;41.80
10133;DHT22;5106;50.926;7.080;2023-06-05T15:55:09;26.70;41.20
10133;DHT22;5106;50.926;7.080;2023-06-05T15:57:35;26.80;42.70
10133;DHT22;5106;50.926;7.080;2023-06-05T16:00:01;26.90;41.90
10133;DHT22;5106;50.926;7.080;2023-06-05T16:02:26;27.10;41.50
10133;DHT22;5106;50.926;7.080;2023-06-05T16:04:52;27.30;41.00
10133;DHT22;5106;50.926;7.080;2023-06-05T16:07:18;27.50;40.70
10133;DHT22;5106;50.926;7.080;2023-06-05T16:09:43;27.50;40.70
10133;DHT22;5106;50.926;7.080;2023-06-05T16:12:09;27.60;41.00
10133;DHT22;5106;50.926;7.080;2023-06-05T16:14:35;27.50;41.00
10133;DHT22;5106;50.926;7.080;2023-06-05T16:17:02;27.40;41.10
10133;DHT22;5106;50.926;7.080;2023-06-05T16:19:28;27.30;41.50
10133;DHT22;5106;50.926;7.080;2023-06-05T16:21:53;27.30;41.90
10133;DHT22;5106;50.926;7.080;2023-06-05T16:24:20;27.30;41.10
10133;DHT22;5106;50.926;7.080;2023-06-05T16:26:46;27.30;41.40
10133;DHT22;5106;50.926;7.080;2023-06-05T16:29:11;27.20;41.30
10133;DHT22;5106;50.926;7.080;2023-06-05T16:31:37;27.10;41.90
10133;DHT22;5106;50.926;7.080;2023-06-05T16:34:09;27.00;41.80
10133;DHT22;5106;50.926;7.080;2023-06-05T16:36:35;26.90;41.80
10133;DHT22;5106;50.926;7.080;2023-06-05T16:39:02;26.80;41.80
10133;DHT22;5106;50.926;7.080;2023-06-05T16:41:28;26.70;42.60
10133;DHT22;5106;50.926;7.080;2023-06-05T16:43:54;26.50;42.70
10133;DHT22;5106;50.926;7.080;2023-06-05T16:46:20;26.40;42.10
10133;DHT22;5106;50.926;7.080;2023-06-05T16:48:49;26.30;43.30
10133;DHT22;5106;50.926;7.080;2023-06-05T16:51:14;26.20;42.10
10133;DHT22;5106;50.926;7.080;2023-06-05T16:53:41;26.00;42.20
10133;DHT22;5106;50.926;7.080;2023-06-05T16:56:06;25.80;42.10
10133;DHT22;5106;50.926;7.080;2023-06-05T16:58:32;25.70;42.70
10133;DHT22;5106;50.926;7.080;2023-06-05T17:00:58;25.70;44.10
10133;DHT22;5106;50.926;7.080;2023-06-05T17:03:23;25.60;43.80
10133;DHT22;5106;50.926;7.080;2023-06-05T17:05:49;25.60;43.80
10133;DHT22;5106;50.926;7.080;2023-06-05T17:08:16;25.60;44.20
10133;DHT22;5106;50.926;7.080;2023-06-05T17:10:42;25.60;44.10
10133;DHT22;5106;50.926;7.080;2023-06-05T17:13:08;25.60;44.50
10133;DHT22;5106;50.926;7.080;2023-06-05T17:15:34;25.60;43.80
10133;DHT22;5106;50.926;7.080;2023-06-05T17:17:59;25.60;43.30
10133;DHT22;5106;50.926;7.080;2023-06-05T17:20:25;25.50;43.80
10133;DHT22;5106;50.926;7.080;2023-06-05T17:22:51;25.50;43.80
10133;DHT22;5106;50.926;7.080;2023-06-05T17:25:17;25.60;45.00
10133;DHT22;5106;50.926;7.080;2023-06-05T17:27:42;25.60;44.30
10133;DHT22;5106;50.926;7.080;2023-06-05T17:30:09;25.50;43.70
10133;DHT22;5106;50.926;7.080;2023-06-05T17:32:34;25.40;43.70
10133;DHT22;5106;50.926;7.080;2023-06-05T17:35:00;25.30;44.40
10133;DHT22;5106;50.926;7.080;2023-06-05T17:37:26;25.20;43.90
10133;DHT22;5106;50.926;7.080;2023-06-05T17:39:51;25.10;43.90
10133;DHT22;5106;50.926;7.080;2023-06-05T17:42:17;24.90;43.80
10133;DHT22;5106;50.926;7.080;2023-06-05T17:44:43;24.80;44.30
10133;DHT22;5106;50.926;7.080;2023-06-05T17:47:08;24.70;44.30
10133;DHT22;5106;50.926;7.080;2023-06-05T17:49:34;24.60;45.20
10133;DHT22;5106;50.926;7.080;2023-06-05T17:52:00;24.50;44.50
10133;DHT22;5106;50.926;7.080;2023-06-05T17:54:26;24.40;45.00
10133;DHT22;5106;50.926;7.080;2023-06-05T17:56:53;24.40;44.90
10133;DHT22;5106;50.926;7.080;2023-06-05T17:59:20;24.30;45.30
10133;DHT22;5106;50.926;7.080;2023-06-05T18:01:45;24.30;45.70
10133;DHT22;5106;50.926;7.080;2023-06-05T18:04:11;24.20;45.10
10133;DHT22;5106;50.926;7.080;2023-06-05T18:06:39;24.20;45.50
10133;DHT22;5106;50.926;7.080;2023-06-05T18:09:05;24.10;45.90
10133;DHT22;5106;50.926;7.080;2023-06-05T18:11:31;24.00;45.60
10133;DHT22;5106;50.926;7.080;2023-06-05T18:13:57;23.90;46.50
10133;DHT22;5106;50.926;7.080;2023-06-05T18:16:23;23.80;45.50
10133;DHT22;5106;50.926;7.080;2023-06-05T18:18:48;23.80;47.20
10133;DHT22;5106;50.926;7.080;2023-06-05T18:21:14;23.80;46.30
10133;DHT22;5106;50.926;7.080;2023-06-05T18:23:41;23.70;46.40
10133;DHT22;5106;50.926;7.080;2023-06-05T18:26:07;23.70;46.70
10133;DHT22;5106;50.926;7.080;2023-06-05T18:28:34;23.60;47.10
10133;DHT22;5106;50.926;7.080;2023-06-05T18:30:59;23.60;46.80
10133;DHT22;5106;50.926;7.080;2023-06-05T18:33:25;23.50;46.60
10133;DHT22;5106;50.926;7.080;2023-06-05T18:35:53;23.50;47.20
10133;DHT22;5106;50.926;7.080;2023-06-05T18:38:18;23.40;47.50
10133;DHT22;5106;50.926;7.080;2023-06-05T18:40:44;23.30;48.40
10133;DHT22;5106;50.926;7.080;2023-06-05T18:43:10;23.30;47.60
10133;DHT22;5106;50.926;7.080;2023-06-05T18:45:37;23.10;48.60
10133;DHT22;5106;50.926;7.080;2023-06-05T18:48:03;23.10;47.50
10133;DHT22;5106;50.926;7.080;2023-06-05T18:50:29;23.00;47.50
10133;DHT22;5106;50.926;7.080;2023-06-05T18:52:56;23.00;49.30
10133;DHT22;5106;50.926;7.080;2023-06-05T18:55:21;22.90;50.30
10133;DHT22;5106;50.926;7.080;2023-06-05T18:57:47;22.80;49.20
10133;DHT22;5106;50.926;7.080;2023-06-05T19:00:13;22.70;48.80